createdAt,value
2018-08-17T00:00:07.107Z,12.90
2018-08-17T00:02:35.468Z,12.90
2018-08-17T00:05:03.871Z,13.00
2018-08-17T00:07:32.221Z,12.90
2018-08-17T00:10:00.671Z,12.90
2018-08-17T00:12:29.181Z,12.80
2018-08-17T00:14:57.578Z,12.80
2018-08-17T00:17:26.272Z,12.80
2018-08-17T00:19:54.874Z,12.70
2018-08-17T00:22:23.245Z,12.80
2018-08-17T00:24:51.794Z,12.70
2018-08-17T00:27:20.251Z,12.60
2018-08-17T00:29:48.758Z,12.50
2018-08-17T00:32:17.660Z,12.50
2018-08-17T00:34:46.293Z,12.50
2018-08-17T00:37:14.763Z,12.50
2018-08-17T00:39:43.255Z,12.50
2018-08-17T00:42:11.762Z,12.50
2018-08-17T00:44:40.342Z,12.40
2018-08-17T00:47:09.075Z,12.50
2018-08-17T00:49:37.623Z,12.60
2018-08-17T00:52:06.290Z,12.40
2018-08-17T00:54:34.735Z,12.40
2018-08-17T00:57:03.234Z,12.40
2018-08-17T00:59:31.852Z,12.40
2018-08-17T01:02:00.406Z,12.40
2018-08-17T01:04:29.124Z,12.30
2018-08-17T01:06:57.663Z,12.30
2018-08-17T01:09:26.358Z,12.20
2018-08-17T01:11:54.929Z,12.30
2018-08-17T01:14:23.486Z,12.30
2018-08-17T01:16:51.829Z,12.20
2018-08-17T01:19:20.209Z,12.20
2018-08-17T01:21:48.650Z,12.10
2018-08-17T01:24:17.002Z,12.10
2018-08-17T01:26:45.378Z,12.00
2018-08-17T01:29:13.729Z,12.20
2018-08-17T01:31:42.086Z,12.10
2018-08-17T01:34:10.487Z,12.00
2018-08-17T01:36:38.857Z,12.10
2018-08-17T01:39:08.210Z,12.00
2018-08-17T01:41:36.701Z,12.00
2018-08-17T01:44:05.139Z,12.00
2018-08-17T01:46:33.645Z,12.00
2018-08-17T01:49:02.158Z,12.10
2018-08-17T01:51:30.695Z,12.10
2018-08-17T01:53:59.142Z,12.20
2018-08-17T01:56:27.591Z,12.30
2018-08-17T01:58:55.962Z,12.20
2018-08-17T02:01:24.435Z,12.10
2018-08-17T02:03:53.005Z,12.10
2018-08-17T02:06:21.638Z,12.10
2018-08-17T02:08:50.020Z,12.00
2018-08-17T02:11:18.566Z,12.10
2018-08-17T02:13:46.950Z,12.10
2018-08-17T02:16:15.509Z,12.20
2018-08-17T02:18:44.028Z,12.20
2018-08-17T02:21:12.450Z,12.10
2018-08-17T02:23:40.996Z,12.00
2018-08-17T02:26:09.368Z,12.00
2018-08-17T02:28:37.809Z,12.00
2018-08-17T02:31:06.219Z,12.00
2018-08-17T02:33:34.611Z,11.90
2018-08-17T02:36:03.019Z,12.00
2018-08-17T02:38:31.399Z,12.00
2018-08-17T02:40:59.771Z,12.00
2018-08-17T02:43:28.075Z,11.90
2018-08-17T02:45:56.397Z,11.80
2018-08-17T02:48:24.955Z,11.70
2018-08-17T02:50:53.667Z,11.80
2018-08-17T02:53:21.990Z,11.80
2018-08-17T02:55:50.384Z,11.80
2018-08-17T02:58:18.756Z,11.80
2018-08-17T03:00:47.163Z,11.70
2018-08-17T03:03:15.551Z,11.70
2018-08-17T03:05:43.955Z,11.60
2018-08-17T03:08:12.350Z,11.60
2018-08-17T03:10:40.745Z,11.60
2018-08-17T03:13:09.083Z,11.50
2018-08-17T03:15:37.445Z,11.50
2018-08-17T03:18:05.850Z,11.60
2018-08-17T03:20:34.194Z,11.70
2018-08-17T03:23:02.535Z,11.70
2018-08-17T03:25:30.903Z,11.70
2018-08-17T03:27:59.246Z,11.70
2018-08-17T03:30:27.566Z,11.70
2018-08-17T03:32:55.931Z,11.80
2018-08-17T03:35:24.265Z,11.80
2018-08-17T03:37:52.586Z,11.80
2018-08-17T03:40:20.888Z,11.90
2018-08-17T03:42:49.203Z,11.90
2018-08-17T03:45:17.514Z,11.80
2018-08-17T03:47:45.835Z,11.80
2018-08-17T03:50:14.146Z,11.70
2018-08-17T03:52:42.458Z,11.80
2018-08-17T03:55:10.758Z,11.80
2018-08-17T03:57:39.194Z,11.70
2018-08-17T04:00:07.514Z,11.80
2018-08-17T04:02:36.082Z,11.70
2018-08-17T04:05:05.140Z,11.80
2018-08-17T04:07:33.598Z,11.80
2018-08-17T04:10:01.977Z,11.80
2018-08-17T04:12:30.287Z,11.80
2018-08-17T04:14:58.589Z,11.70
2018-08-17T04:17:26.891Z,11.70
2018-08-17T04:19:55.216Z,11.60
2018-08-17T04:22:23.574Z,11.60
2018-08-17T04:24:51.917Z,11.60
2018-08-17T04:27:20.890Z,11.60
2018-08-17T04:29:49.238Z,11.60
2018-08-17T04:32:17.587Z,11.60
2018-08-17T04:34:45.977Z,11.70
2018-08-17T04:37:14.407Z,11.70
2018-08-17T04:39:42.797Z,11.80
2018-08-17T04:42:11.141Z,11.90
2018-08-17T04:44:39.506Z,12.00
2018-08-17T04:47:08.115Z,12.00
2018-08-17T04:49:36.539Z,12.00
2018-08-17T04:52:05.054Z,12.00
2018-08-17T04:54:34.614Z,11.90
2018-08-17T04:57:03.375Z,11.90
2018-08-17T04:59:31.934Z,12.00
2018-08-17T05:02:00.646Z,12.00
2018-08-17T05:04:29.190Z,12.20
2018-08-17T05:06:57.638Z,12.20
2018-08-17T05:09:26.405Z,12.30
2018-08-17T05:11:54.778Z,12.30
2018-08-17T05:14:23.106Z,12.40
2018-08-17T05:16:51.657Z,12.50
2018-08-17T05:19:20.150Z,12.60
2018-08-17T05:21:48.583Z,12.80
2018-08-17T05:24:17.500Z,12.90
2018-08-17T05:26:45.940Z,13.10
2018-08-17T05:29:14.611Z,13.20
2018-08-17T05:31:43.009Z,13.40
2018-08-17T05:34:11.584Z,13.40
2018-08-17T05:36:40.358Z,13.50
2018-08-17T05:39:09.352Z,13.50
2018-08-17T05:41:37.810Z,13.50
2018-08-17T05:44:06.418Z,13.60
2018-08-17T05:46:34.785Z,13.70
2018-08-17T05:49:03.236Z,13.80
2018-08-17T05:51:31.827Z,13.90
2018-08-17T05:54:00.227Z,14.00
2018-08-17T05:56:28.639Z,14.20
2018-08-17T05:58:57.216Z,14.40
2018-08-17T06:01:25.549Z,14.50
2018-08-17T06:03:54.071Z,14.80
2018-08-17T06:06:22.869Z,15.00
2018-08-17T06:08:57.787Z,15.20
2018-08-17T06:11:26.287Z,15.40
2018-08-17T06:13:54.730Z,15.60
2018-08-17T06:16:23.165Z,15.80
2018-08-17T06:18:51.774Z,16.00
2018-08-17T06:21:20.153Z,16.20
2018-08-17T06:23:48.617Z,16.30
2018-08-17T06:26:17.171Z,16.40
2018-08-17T06:28:45.536Z,16.60
2018-08-17T06:31:13.901Z,16.90
2018-08-17T06:33:42.497Z,17.20
2018-08-17T06:36:10.889Z,17.50
2018-08-17T06:38:39.421Z,17.50
2018-08-17T06:41:07.786Z,17.70
2018-08-17T06:43:36.210Z,17.90
2018-08-17T06:46:04.899Z,18.30
2018-08-17T06:48:33.290Z,18.20
2018-08-17T06:51:01.807Z,18.30
2018-08-17T06:53:30.358Z,18.30
2018-08-17T06:55:58.789Z,18.20
2018-08-17T06:58:27.139Z,17.90
2018-08-17T07:00:55.465Z,17.50
2018-08-17T07:03:23.801Z,17.20
2018-08-17T07:05:52.192Z,16.90
2018-08-17T07:08:20.497Z,16.90
2018-08-17T07:10:48.788Z,16.80
2018-08-17T07:13:17.093Z,16.80
2018-08-17T07:15:45.441Z,16.80
2018-08-17T07:18:13.784Z,16.80
2018-08-17T07:20:42.121Z,16.90
2018-08-17T07:23:10.474Z,16.90
2018-08-17T07:25:38.877Z,16.90
2018-08-17T07:28:07.240Z,17.10
2018-08-17T07:30:35.570Z,17.30
2018-08-17T07:33:03.918Z,17.50
2018-08-17T07:35:32.306Z,17.70
2018-08-17T07:38:00.665Z,17.60
2018-08-17T07:40:29.072Z,17.60
2018-08-17T07:42:57.401Z,17.70
2018-08-17T07:45:25.885Z,17.80
2018-08-17T07:47:54.264Z,17.80
2018-08-17T07:50:22.690Z,17.80
2018-08-17T07:52:51.114Z,17.90
2018-08-17T07:55:19.498Z,18.00
2018-08-17T07:57:47.865Z,18.20
2018-08-17T08:00:16.175Z,18.40
2018-08-17T08:02:44.562Z,18.50
2018-08-17T08:05:12.875Z,18.40
2018-08-17T08:07:41.215Z,18.50
2018-08-17T08:10:10.666Z,18.60
2018-08-17T08:12:39.207Z,18.70
2018-08-17T08:15:07.794Z,18.50
2018-08-17T08:17:36.406Z,18.50
2018-08-17T08:20:16.258Z,18.50
2018-08-17T08:22:44.545Z,18.60
2018-08-17T08:25:12.867Z,18.80
2018-08-17T08:27:41.206Z,18.70
2018-08-17T08:30:09.526Z,18.60
2018-08-17T08:32:37.894Z,18.40
2018-08-17T08:35:07.141Z,18.20
2018-08-17T08:37:35.635Z,18.10
2018-08-17T08:40:04.379Z,18.40
2018-08-17T08:42:32.819Z,18.70
2018-08-17T08:45:01.178Z,19.10
2018-08-17T08:47:29.576Z,19.20
2018-08-17T08:49:57.919Z,19.20
2018-08-17T08:52:26.326Z,19.20
2018-08-17T08:54:54.751Z,19.20
2018-08-17T08:57:23.124Z,19.30
2018-08-17T08:59:51.501Z,19.20
2018-08-17T09:02:19.910Z,19.00
2018-08-17T09:04:48.315Z,18.50
2018-08-17T09:07:16.734Z,18.50
2018-08-17T09:09:45.194Z,18.30
2018-08-17T09:12:13.698Z,18.30
2018-08-17T09:14:42.110Z,18.50
2018-08-17T09:17:10.590Z,18.90
2018-08-17T09:19:39.109Z,18.90
2018-08-17T09:22:07.610Z,19.20
2018-08-17T09:24:37.154Z,19.50
2018-08-17T09:27:05.889Z,20.10
2018-08-17T09:29:34.253Z,20.50
2018-08-17T09:32:02.739Z,20.70
2018-08-17T09:34:31.271Z,20.90
2018-08-17T09:36:59.791Z,21.10
2018-08-17T09:39:28.608Z,21.00
2018-08-17T09:41:57.140Z,20.80
2018-08-17T09:44:25.834Z,20.40
2018-08-17T09:46:54.281Z,19.30
2018-08-17T09:49:22.684Z,18.40
2018-08-17T09:51:51.096Z,18.00
2018-08-17T09:54:19.583Z,17.70
2018-08-17T09:56:48.046Z,17.50
2018-08-17T09:59:16.554Z,17.40
2018-08-17T10:01:51.370Z,17.30
2018-08-17T10:04:25.081Z,17.20
2018-08-17T10:06:58.981Z,17.30
2018-08-17T10:09:32.963Z,17.30
2018-08-17T10:12:01.502Z,17.50
2018-08-17T10:14:31.212Z,17.80
2018-08-17T10:16:59.877Z,18.00
2018-08-17T10:19:28.562Z,18.10
2018-08-17T10:21:57.500Z,18.30
2018-08-17T10:24:25.920Z,18.50
2018-08-17T10:26:55.044Z,18.90
2018-08-17T10:29:23.663Z,19.20
2018-08-17T10:31:52.086Z,19.50
2018-08-17T10:34:20.636Z,19.50
2018-08-17T10:36:49.060Z,19.90
2018-08-17T10:39:17.424Z,20.00
2018-08-17T10:41:45.821Z,20.30
2018-08-17T10:44:14.166Z,20.40
2018-08-17T10:46:42.875Z,20.30
2018-08-17T10:49:11.539Z,20.40
2018-08-17T10:51:40.178Z,20.40
2018-08-17T10:54:08.738Z,20.40
2018-08-17T10:56:37.193Z,20.30
2018-08-17T10:59:05.620Z,20.40
2018-08-17T11:01:33.967Z,20.50
2018-08-17T11:04:02.283Z,20.50
2018-08-17T11:06:30.803Z,20.40
2018-08-17T11:08:59.475Z,20.60
2018-08-17T11:11:27.857Z,21.00
2018-08-17T11:13:56.294Z,20.90
2018-08-17T11:16:24.610Z,21.10
2018-08-17T11:18:54.195Z,21.20
2018-08-17T11:21:22.510Z,21.20
2018-08-17T11:23:50.818Z,21.20
2018-08-17T11:26:25.473Z,21.50
2018-08-17T11:28:53.860Z,21.80
2018-08-17T11:31:22.223Z,22.10
2018-08-17T11:33:50.590Z,22.10
2018-08-17T11:36:22.562Z,22.00
2018-08-17T11:38:50.991Z,22.30
2018-08-17T11:41:19.702Z,22.30
2018-08-17T11:43:48.299Z,22.70
2018-08-17T11:46:16.622Z,22.80
2018-08-17T11:48:45.110Z,23.00
2018-08-17T11:51:13.603Z,23.30
2018-08-17T11:53:46.480Z,23.50
2018-08-17T11:56:14.915Z,23.70
2018-08-17T11:58:43.588Z,23.80
2018-08-17T12:01:17.977Z,23.90
2018-08-17T12:03:46.418Z,23.70
2018-08-17T12:06:15.328Z,23.60
2018-08-17T12:08:44.030Z,23.70
2018-08-17T12:11:12.407Z,23.80
2018-08-17T12:13:40.727Z,24.20
2018-08-17T12:16:12.459Z,24.40
2018-08-17T12:18:41.070Z,24.70
2018-08-17T12:21:09.687Z,24.50
2018-08-17T12:23:39.030Z,24.40
2018-08-17T12:26:07.377Z,24.30
2018-08-17T12:28:35.694Z,24.40
2018-08-17T12:31:04.041Z,24.40
2018-08-17T12:33:32.680Z,24.30
2018-08-17T12:36:01.033Z,23.60
2018-08-17T12:38:29.418Z,24.00
2018-08-17T12:40:58.521Z,24.00
2018-08-17T12:43:30.331Z,24.10
2018-08-17T12:45:58.864Z,24.00
2018-08-17T12:48:27.418Z,23.80
2018-08-17T12:51:00.439Z,23.80
2018-08-17T12:53:29.276Z,23.50
2018-08-17T12:55:57.987Z,23.50
2018-08-17T12:58:26.472Z,23.40
2018-08-17T13:00:55.029Z,23.40
2018-08-17T13:03:24.000Z,23.30
2018-08-17T13:05:52.748Z,23.30
2018-08-17T13:08:21.960Z,23.20
2018-08-17T13:10:51.100Z,23.40
2018-08-17T13:13:19.672Z,23.40
2018-08-17T13:15:53.593Z,23.40
2018-08-17T13:18:22.606Z,23.20
2018-08-17T13:20:51.372Z,22.90
2018-08-17T13:23:20.306Z,22.70
2018-08-17T13:25:49.075Z,22.90
2018-08-17T13:28:17.567Z,23.00
2018-08-17T13:30:46.916Z,23.20
2018-08-17T13:33:15.445Z,23.60
2018-08-17T13:35:43.802Z,23.90
2018-08-17T13:38:12.342Z,24.30
2018-08-17T13:40:40.814Z,24.50
2018-08-17T13:43:09.342Z,24.40
2018-08-17T13:45:37.996Z,24.20
2018-08-17T13:48:06.705Z,24.30
2018-08-17T13:50:35.258Z,24.50
2018-08-17T13:53:04.080Z,24.20
2018-08-17T13:55:32.828Z,23.90
2018-08-17T13:58:01.611Z,23.40
2018-08-17T14:00:30.189Z,23.20
2018-08-17T14:02:58.849Z,23.00
2018-08-17T14:05:27.390Z,22.80
2018-08-17T14:07:56.057Z,22.80
2018-08-17T14:10:24.547Z,22.80
2018-08-17T14:12:52.990Z,22.90
2018-08-17T14:15:22.667Z,22.90
2018-08-17T14:17:51.175Z,22.70
2018-08-17T14:20:19.632Z,22.30
2018-08-17T14:22:48.030Z,21.80
2018-08-17T14:25:16.392Z,21.50
2018-08-17T14:27:44.855Z,21.20
2018-08-17T14:30:16.890Z,20.80
2018-08-17T14:32:45.424Z,20.60
2018-08-17T14:35:14.484Z,20.40
2018-08-17T14:37:42.758Z,20.50
2018-08-17T14:40:11.483Z,20.60
2018-08-17T14:42:40.317Z,20.40
2018-08-17T14:45:09.566Z,20.50
2018-08-17T14:47:38.198Z,20.30
2018-08-17T14:50:11.837Z,20.00
2018-08-17T14:52:40.285Z,19.90
2018-08-17T14:55:09.184Z,20.00
2018-08-17T14:57:38.546Z,19.90
2018-08-17T15:00:11.345Z,19.90
2018-08-17T15:02:40.448Z,20.00
2018-08-17T15:05:10.786Z,20.10
2018-08-17T15:07:39.518Z,20.10
2018-08-17T15:10:09.038Z,20.10
2018-08-17T15:12:37.560Z,20.00
2018-08-17T15:15:06.364Z,19.80
2018-08-17T15:17:34.884Z,19.70
2018-08-17T15:20:03.578Z,19.70
2018-08-17T15:22:32.327Z,19.60
2018-08-17T15:25:00.720Z,19.50
2018-08-17T15:27:29.215Z,19.50
2018-08-17T15:29:57.772Z,19.60
2018-08-17T15:32:26.319Z,19.70
2018-08-17T15:34:55.367Z,19.80
2018-08-17T15:37:23.702Z,19.70
2018-08-17T15:39:52.046Z,19.60
2018-08-17T15:42:20.369Z,19.50
2018-08-17T15:44:48.962Z,19.40
2018-08-17T15:47:17.391Z,19.20
2018-08-17T15:50:03.060Z,19.10
2018-08-17T15:52:32.187Z,19.00
2018-08-17T15:55:01.427Z,18.90
2018-08-17T15:57:30.079Z,19.00
2018-08-17T15:59:58.742Z,19.20
2018-08-17T16:02:27.990Z,18.90
2018-08-17T16:04:56.553Z,18.70
2018-08-17T16:07:24.908Z,18.50
2018-08-17T16:09:54.847Z,18.40
2018-08-17T16:12:23.520Z,18.40
2018-08-17T16:14:51.963Z,18.40
2018-08-17T16:17:20.464Z,18.20
2018-08-17T16:19:49.146Z,18.20
2018-08-17T16:22:17.514Z,18.10
2018-08-17T16:24:46.290Z,18.00
2018-08-17T16:27:14.734Z,18.00
2018-08-17T16:29:43.155Z,18.00
2018-08-17T16:32:11.779Z,18.00
2018-08-17T16:34:40.170Z,18.00
2018-08-17T16:37:08.665Z,18.00
2018-08-17T16:39:43.499Z,18.00
2018-08-17T16:42:15.019Z,18.00
2018-08-17T16:44:43.511Z,17.90
2018-08-17T16:47:11.962Z,17.90
2018-08-17T16:49:40.415Z,17.80
2018-08-17T16:52:09.010Z,17.80
2018-08-17T16:54:37.555Z,17.80
2018-08-17T16:57:06.007Z,17.90
2018-08-17T16:59:34.442Z,18.00
2018-08-17T17:02:02.940Z,18.10
2018-08-17T17:04:36.988Z,18.10
2018-08-17T17:07:05.621Z,18.10
2018-08-17T17:09:34.046Z,18.00
2018-08-17T17:12:02.558Z,18.00
2018-08-17T17:14:30.978Z,18.00
2018-08-17T17:16:59.553Z,17.90
2018-08-17T17:19:28.060Z,17.80
2018-08-17T17:21:56.530Z,17.80
2018-08-17T17:24:25.030Z,17.70
2018-08-17T17:26:53.823Z,17.70
2018-08-17T17:29:23.425Z,17.70
2018-08-17T17:31:52.260Z,17.50
2018-08-17T17:34:20.849Z,17.50
2018-08-17T17:36:49.370Z,17.50
2018-08-17T17:39:17.834Z,17.40
2018-08-17T17:41:46.381Z,17.20
2018-08-17T17:44:14.878Z,17.20
2018-08-17T17:46:43.396Z,17.20
2018-08-17T17:49:12.048Z,17.10
2018-08-17T17:51:40.472Z,17.00
2018-08-17T17:54:09.031Z,17.10
2018-08-17T17:56:37.474Z,17.10
2018-08-17T17:59:14.444Z,17.00
2018-08-17T18:01:43.082Z,17.00
2018-08-17T18:04:11.580Z,17.00
2018-08-17T18:06:40.109Z,16.90
2018-08-17T18:09:08.550Z,16.90
2018-08-17T18:11:37.089Z,16.80
2018-08-17T18:14:05.570Z,16.70
2018-08-17T18:16:34.832Z,16.60
2018-08-17T18:19:03.234Z,16.60
2018-08-17T18:21:33.281Z,16.50
2018-08-17T18:24:07.148Z,16.40
2018-08-17T18:26:35.871Z,16.40
2018-08-17T18:29:04.436Z,16.40
2018-08-17T18:31:33.073Z,16.30
2018-08-17T18:34:01.886Z,16.20
2018-08-17T18:36:30.784Z,16.10
2018-08-17T18:38:59.491Z,16.10
2018-08-17T18:41:28.285Z,16.00
2018-08-17T18:43:57.161Z,15.90
2018-08-17T18:46:27.244Z,15.90
2018-08-17T18:48:55.829Z,15.90
2018-08-17T18:51:24.354Z,15.90
2018-08-17T18:53:53.203Z,15.90
2018-08-17T18:56:21.929Z,15.90
2018-08-17T18:58:50.577Z,15.90
2018-08-17T19:01:19.277Z,16.00
2018-08-17T19:03:47.939Z,16.00
2018-08-17T19:06:16.385Z,16.00
2018-08-17T19:08:45.074Z,16.00
2018-08-17T19:11:13.710Z,16.00
2018-08-17T19:13:42.288Z,15.90
2018-08-17T19:16:10.969Z,15.90
2018-08-17T19:18:39.791Z,15.90
2018-08-17T19:21:10.621Z,15.80
2018-08-17T19:23:39.245Z,15.80
2018-08-17T19:26:08.726Z,15.70
2018-08-17T19:28:37.166Z,15.60
2018-08-17T19:31:05.786Z,15.50
2018-08-17T19:33:34.379Z,15.40
2018-08-17T19:36:03.606Z,15.40
2018-08-17T19:38:41.636Z,15.30
2018-08-17T19:41:10.115Z,15.20
2018-08-17T19:43:38.978Z,15.20
2018-08-17T19:46:07.538Z,15.10
2018-08-17T19:48:35.959Z,15.10
2018-08-17T19:51:09.935Z,15.00
2018-08-17T19:53:38.271Z,14.90
2018-08-17T19:56:06.678Z,14.90
2018-08-17T19:58:35.000Z,14.80
2018-08-17T20:01:03.375Z,14.80
2018-08-17T20:03:32.045Z,14.80
2018-08-17T20:06:00.535Z,14.90
2018-08-17T20:08:29.277Z,14.90
2018-08-17T20:10:57.654Z,15.00
2018-08-17T20:13:26.211Z,14.90
2018-08-17T20:15:54.702Z,15.00
2018-08-17T20:18:25.150Z,15.00
2018-08-17T20:20:53.497Z,15.10
2018-08-17T20:23:21.860Z,15.10
2018-08-17T20:25:50.297Z,15.00
2018-08-17T20:28:18.551Z,15.10
2018-08-17T20:30:46.918Z,15.10
2018-08-17T20:33:21.487Z,15.10
2018-08-17T20:35:50.386Z,15.10
2018-08-17T20:38:18.726Z,15.10
2018-08-17T20:40:47.411Z,15.20
2018-08-17T20:43:15.965Z,15.20
2018-08-17T20:45:44.601Z,15.20
2018-08-17T20:48:12.963Z,15.20
2018-08-17T20:50:42.448Z,15.20
2018-08-17T20:53:13.201Z,15.20
2018-08-17T20:55:41.827Z,15.20
2018-08-17T20:58:10.178Z,15.20
2018-08-17T21:00:38.963Z,15.20
2018-08-17T21:03:07.490Z,15.30
2018-08-17T21:05:35.964Z,15.30
2018-08-17T21:08:04.423Z,15.20
2018-08-17T21:10:33.140Z,15.20
2018-08-17T21:13:01.726Z,15.20
2018-08-17T21:15:30.056Z,15.20
2018-08-17T21:17:58.493Z,15.20
2018-08-17T21:20:27.221Z,15.20
2018-08-17T21:22:55.796Z,15.20
2018-08-17T21:25:24.095Z,15.20
2018-08-17T21:27:52.398Z,15.20
2018-08-17T21:30:20.836Z,15.20
2018-08-17T21:32:49.146Z,15.20
2018-08-17T21:35:17.481Z,15.10
2018-08-17T21:37:45.795Z,15.20
2018-08-17T21:40:20.605Z,15.20
2018-08-17T21:42:48.907Z,15.20
2018-08-17T21:45:17.431Z,15.10
2018-08-17T21:47:45.936Z,15.20
2018-08-17T21:50:16.368Z,15.20
2018-08-17T21:52:45.313Z,15.20
2018-08-17T21:55:14.175Z,15.20
2018-08-17T21:57:42.985Z,15.20
2018-08-17T22:00:28.692Z,15.10
2018-08-17T22:02:57.074Z,15.00
2018-08-17T22:05:28.263Z,15.00
2018-08-17T22:07:56.642Z,14.80
2018-08-17T22:10:25.021Z,14.70
2018-08-17T22:12:54.377Z,14.60
2018-08-17T22:17:59.162Z,14.40
2018-08-17T22:20:27.497Z,14.20
2018-08-17T22:22:55.979Z,14.20
2018-08-17T22:25:24.292Z,14.00
2018-08-17T22:27:52.637Z,13.90
2018-08-17T22:30:22.730Z,13.70
2018-08-17T22:32:51.645Z,13.60
2018-08-17T22:35:20.077Z,13.50
2018-08-17T22:37:48.501Z,13.40
2018-08-17T22:40:16.889Z,13.30
2018-08-17T22:42:46.945Z,13.20
2018-08-17T22:45:15.177Z,13.20
2018-08-17T22:47:43.489Z,13.10
2018-08-17T22:50:12.091Z,13.10
2018-08-17T22:52:40.520Z,13.00
2018-08-17T22:55:09.456Z,13.10
2018-08-17T22:57:37.778Z,13.00
2018-08-17T23:00:20.530Z,12.80
2018-08-17T23:02:50.307Z,12.80
2018-08-17T23:05:20.217Z,12.60
2018-08-17T23:07:48.543Z,12.50
2018-08-17T23:10:18.291Z,12.30
2018-08-17T23:12:47.736Z,12.30
2018-08-17T23:15:16.235Z,12.20
2018-08-17T23:17:49.223Z,12.10
2018-08-17T23:20:21.819Z,12.10
2018-08-17T23:22:52.295Z,12.00
2018-08-17T23:25:20.620Z,11.90
2018-08-17T23:27:49.584Z,11.90
2018-08-17T23:30:17.909Z,11.90
2018-08-17T23:32:46.491Z,11.80
2018-08-17T23:35:14.863Z,11.80
2018-08-17T23:37:43.420Z,11.80
2018-08-17T23:40:11.904Z,11.70
2018-08-17T23:42:40.433Z,11.50
2018-08-17T23:45:11.022Z,11.50
2018-08-17T23:47:39.451Z,11.40
2018-08-17T23:50:09.294Z,11.30
2018-08-17T23:52:37.635Z,11.30
2018-08-17T23:55:06.502Z,11.20
2018-08-17T23:57:35.364Z,11.10
